European Highlander — C6SN6 — position and weather

sailwx.info

Track history (hours):
 
Tides and Currents Weather Stations Pressure Air Temp Water Temp Dewpoint Dewpoint Depression Visibility Wind Speed Wind Dir Waves Ship Positions

European Highlander

Operator: P&O Irish Sea Ltd

Last reported at 2020-Jan-25 00:39 UTC. Time now 2020-Jan-25 06:31 UTC.
Position N 54°56' W 005°29'.

Length 161 m; draft 5.5 m.

Type: Ship. MMSI: 311404000.

Date/timePositionNaut miles runAvg speedWind from/ knotsBaromVisibWave heightAir tempDewpointWater temp
2020-Jan-25 00:39N 54°56' W 005°29'817.6
2020-Jan-25 00:11N 54°53' W 005°42'4 0.5
2020-Jan-24 15:57N 54°51' W 005°48'22 5.3
2020-Jan-24 11:47N 55°00' W 005°13'2217.3
2020-Jan-24 10:31N 54°51' W 005°48'0 3.7
2020-Jan-24 10:30N 54°51' W 005°48'0 0.2
2020-Jan-24 10:00N 54°51' W 005°48'0 0.0
2020-Jan-24 03:30N 54°51' W 005°48'0 0.0
2020-Jan-24 02:24N 54°51' W 005°48'0 0.0
2020-Jan-23 13:32N 54°51' W 005°48'0 0.2
2020-Jan-23 12:30N 54°51' W 005°48'0 0.0
2020-Jan-23 05:59N 54°51' W 005°48'5 0.3
2020-Jan-22 14:55N 54°54' W 005°40'4 1.1
2020-Jan-22 10:59N 54°55' W 005°33'12 3.9
2020-Jan-22 08:00N 55°00' W 005°15'20 5.0
2020-Jan-22 03:57N 54°52' W 005°47'1 2.3
2020-Jan-22 03:29N 54°51' W 005°48'0 0.0
2020-Jan-21 12:52N 54°51' W 005°48'0 0.0
2020-Jan-21 07:27N 54°51' W 005°48'24 3.8
2020-Jan-21 01:17N 55°01' W 005°11'718.3
2020-Jan-21 00:53N 54°58' W 005°22'9 1.2
2020-Jan-20 16:57N 54°54' W 005°37'17 3.3
2020-Jan-20 11:48N 55°01' W 005°10'1717.8
2020-Jan-20 10:52N 54°54' W 005°36'8 4.8
2020-Jan-20 09:18N 54°51' W 005°48'11 2.4
2020-Jan-20 04:38N 54°54' W 005°30'11 7.3
2020-Jan-20 03:07N 54°51' W 005°48'0 0.0
2020-Jan-20 02:16N 54°51' W 005°48'5 6.0
2020-Jan-20 01:22N 54°54' W 005°40'5 0.8
2020-Jan-19 18:24N 54°51' W 005°48'0 0.0
2020-Jan-19 12:57N 54°51' W 005°48'0 0.0
2020-Jan-19 10:45N 54°51' W 005°48'0 0.0
2020-Jan-19 10:30N 54°51' W 005°48'0 0.0
2020-Jan-19 10:00N 54°51' W 005°48'15 9.1
2020-Jan-19 08:23N 54°58' W 005°26'7 0.6
2020-Jan-18 21:11N 55°00' W 005°14'1518.0
2020-Jan-18 20:22N 54°54' W 005°38'6 2.7
2020-Jan-18 18:00N 54°51' W 005°48'0 0.0
2020-Jan-18 13:24N 54°51' W 005°48'0 0.0
2020-Jan-18 06:26N 54°51' W 005°48'0 0.0
2020-Jan-18 05:57N 54°51' W 005°48'13 2.6
2020-Jan-18 00:42N 54°56' W 005°27'1317.4
2020-Jan-17 23:56N 54°51' W 005°48'8 1.2
2020-Jan-17 17:05N 54°54' W 005°35'814.8
2020-Jan-17 16:30N 54°51' W 005°48'13 2.5
2020-Jan-17 11:17N 54°56' W 005°27'4 0.6
2020-Jan-17 04:31N 54°55' W 005°34'916.6
2020-Jan-17 03:59N 54°51' W 005°48'20 1.9
2020-Jan-16 17:22N 55°02' W 005°17'21 5.7
2020-Jan-16 13:48N 54°51' W 005°48'0 0.1
2020-Jan-16 12:35N 54°51' W 005°48'0 0.2
2020-Jan-16 12:30N 54°51' W 005°48'21 1.9
2020-Jan-16 01:11N 55°00' W 005°14'0 0.0
2020-Jan-15 17:43N 55°00' W 005°14'21 2.6
2020-Jan-15 09:27N 54°51' W 005°48'16 3.6
2020-Jan-15 04:52N 54°58' W 005°22'16 9.5
2020-Jan-15 03:09N 54°51' W 005°48'0 0.0
2020-Jan-15 02:09N 54°51' W 005°48'  
Track history (hours):
 
Tides and Currents Weather Stations Pressure Air Temp Water Temp Dewpoint Dewpoint Depression Visibility Wind Speed Wind Dir Waves Ship Positions

European Highlander

Operator: P&O Irish Sea Ltd

Last reported at 2020-Jan-25 00:39 UTC. Time now 2020-Jan-25 06:31 UTC.
Position N 54°56' W 005°29'.

Length 161 m; draft 5.5 m.

Type: Ship. MMSI: 311404000.

Date/timePositionNaut miles runAvg speedWind from/ knotsBaromVisibWave heightAir tempDewpointWater temp
2020-Jan-25 00:39N 54°56' W 005°29'817.6
2020-Jan-25 00:11N 54°53' W 005°42'4 0.5
2020-Jan-24 15:57N 54°51' W 005°48'22 5.3
2020-Jan-24 11:47N 55°00' W 005°13'2217.3
2020-Jan-24 10:31N 54°51' W 005°48'0 3.7
2020-Jan-24 10:30N 54°51' W 005°48'0 0.2
2020-Jan-24 10:00N 54°51' W 005°48'0 0.0
2020-Jan-24 03:30N 54°51' W 005°48'0 0.0
2020-Jan-24 02:24N 54°51' W 005°48'0 0.0
2020-Jan-23 13:32N 54°51' W 005°48'0 0.2
2020-Jan-23 12:30N 54°51' W 005°48'0 0.0
2020-Jan-23 05:59N 54°51' W 005°48'5 0.3
2020-Jan-22 14:55N 54°54' W 005°40'4 1.1
2020-Jan-22 10:59N 54°55' W 005°33'12 3.9
2020-Jan-22 08:00N 55°00' W 005°15'20 5.0
2020-Jan-22 03:57N 54°52' W 005°47'1 2.3
2020-Jan-22 03:29N 54°51' W 005°48'0 0.0
2020-Jan-21 12:52N 54°51' W 005°48'0 0.0
2020-Jan-21 07:27N 54°51' W 005°48'24 3.8
2020-Jan-21 01:17N 55°01' W 005°11'718.3
2020-Jan-21 00:53N 54°58' W 005°22'9 1.2
2020-Jan-20 16:57N 54°54' W 005°37'17 3.3
2020-Jan-20 11:48N 55°01' W 005°10'1717.8
2020-Jan-20 10:52N 54°54' W 005°36'8 4.8
2020-Jan-20 09:18N 54°51' W 005°48'11 2.4
2020-Jan-20 04:38N 54°54' W 005°30'11 7.3
2020-Jan-20 03:07N 54°51' W 005°48'0 0.0
2020-Jan-20 02:16N 54°51' W 005°48'5 6.0
2020-Jan-20 01:22N 54°54' W 005°40'5 0.8
2020-Jan-19 18:24N 54°51' W 005°48'0 0.0
2020-Jan-19 12:57N 54°51' W 005°48'0 0.0
2020-Jan-19 10:45N 54°51' W 005°48'0 0.0
2020-Jan-19 10:30N 54°51' W 005°48'0 0.0
2020-Jan-19 10:00N 54°51' W 005°48'15 9.1
2020-Jan-19 08:23N 54°58' W 005°26'7 0.6
2020-Jan-18 21:11N 55°00' W 005°14'1518.0
2020-Jan-18 20:22N 54°54' W 005°38'6 2.7
2020-Jan-18 18:00N 54°51' W 005°48'0 0.0
2020-Jan-18 13:24N 54°51' W 005°48'0 0.0
2020-Jan-18 06:26N 54°51' W 005°48'0 0.0
2020-Jan-18 05:57N 54°51' W 005°48'13 2.6
2020-Jan-18 00:42N 54°56' W 005°27'1317.4
2020-Jan-17 23:56N 54°51' W 005°48'8 1.2
2020-Jan-17 17:05N 54°54' W 005°35'814.8
2020-Jan-17 16:30N 54°51' W 005°48'13 2.5
2020-Jan-17 11:17N 54°56' W 005°27'4 0.6
2020-Jan-17 04:31N 54°55' W 005°34'916.6
2020-Jan-17 03:59N 54°51' W 005°48'20 1.9
2020-Jan-16 17:22N 55°02' W 005°17'21 5.7
2020-Jan-16 13:48N 54°51' W 005°48'0 0.1
2020-Jan-16 12:35N 54°51' W 005°48'0 0.2
2020-Jan-16 12:30N 54°51' W 005°48'21 1.9
2020-Jan-16 01:11N 55°00' W 005°14'0 0.0
2020-Jan-15 17:43N 55°00' W 005°14'21 2.6
2020-Jan-15 09:27N 54°51' W 005°48'16 3.6
2020-Jan-15 04:52N 54°58' W 005°22'16 9.5
2020-Jan-15 03:09N 54°51' W 005°48'0 0.0
2020-Jan-15 02:09N 54°51' W 005°48'  

Dump ship's entire track history